createdAt,value
2023-06-07T00:00:17.733Z,41.65
2023-06-07T00:02:46.140Z,41.12
2023-06-07T00:05:15.737Z,42.54
2023-06-07T00:07:43.921Z,42.64
2023-06-07T00:10:12.322Z,42.28
2023-06-07T00:12:40.343Z,44.16
2023-06-07T00:15:08.926Z,42.04
2023-06-07T00:17:41.940Z,39.82
2023-06-07T00:20:10.871Z,39.98
2023-06-07T00:22:39.972Z,39.33
2023-06-07T00:25:08.414Z,39.67
2023-06-07T00:27:36.446Z,39.88
2023-06-07T00:30:05.448Z,39.73
2023-06-07T00:32:33.633Z,39.48
2023-06-07T00:35:03.013Z,39.60
2023-06-07T00:37:30.986Z,39.66
2023-06-07T00:39:58.991Z,41.14
2023-06-07T00:42:27.014Z,40.73
2023-06-07T00:44:55.012Z,41.55
2023-06-07T00:47:23.321Z,41.16
2023-06-07T00:49:51.293Z,42.15
2023-06-07T00:52:20.655Z,42.17
2023-06-07T00:54:48.673Z,40.90
2023-06-07T00:57:18.917Z,42.67
2023-06-07T00:59:46.981Z,41.96
2023-06-07T01:02:15.950Z,42.71
2023-06-07T01:04:44.143Z,43.75
2023-06-07T01:07:12.347Z,45.85
2023-06-07T01:09:41.719Z,43.77
2023-06-07T01:12:10.375Z,43.35
2023-06-07T01:14:38.341Z,42.97
2023-06-07T01:17:06.519Z,43.90
2023-06-07T01:19:35.746Z,44.88
2023-06-07T01:22:05.616Z,42.37
2023-06-07T01:24:36.823Z,41.93
2023-06-07T01:27:05.445Z,42.93
2023-06-07T01:29:33.461Z,42.45
2023-06-07T01:32:05.073Z,44.27
2023-06-07T01:34:33.222Z,43.25
2023-06-07T01:37:01.265Z,44.52
2023-06-07T01:39:29.272Z,43.25
2023-06-07T01:41:58.638Z,43.96
2023-06-07T01:44:26.593Z,43.06
2023-06-07T01:46:54.565Z,44.42
2023-06-07T01:49:22.593Z,45.19
2023-06-07T01:51:50.620Z,42.79
2023-06-07T01:54:18.620Z,45.59
2023-06-07T01:56:49.474Z,43.81
2023-06-07T01:59:21.599Z,43.84
2023-06-07T02:01:52.403Z,43.94
2023-06-07T02:04:21.316Z,43.74
2023-06-07T02:06:49.288Z,44.17
2023-06-07T02:09:17.510Z,42.13
2023-06-07T02:11:45.505Z,43.81
2023-06-07T02:14:13.543Z,41.25
2023-06-07T02:16:42.973Z,44.01
2023-06-07T02:19:12.583Z,42.80
2023-06-07T02:21:40.734Z,42.39
2023-06-07T02:24:08.850Z,42.71
2023-06-07T02:26:38.075Z,42.89
2023-06-07T02:29:06.181Z,43.84
2023-06-07T02:31:34.219Z,42.32
2023-06-07T02:34:03.571Z,45.19
2023-06-07T02:36:42.089Z,46.49
2023-06-07T02:39:19.497Z,43.81
2023-06-07T02:41:47.496Z,45.78
2023-06-07T02:44:23.562Z,45.81
2023-06-07T02:46:52.352Z,45.06
2023-06-07T02:49:21.782Z,45.76
2023-06-07T02:51:49.774Z,43.50
2023-06-07T02:54:20.423Z,43.48
2023-06-07T02:56:48.413Z,43.33
2023-06-07T02:59:17.573Z,43.31
2023-06-07T03:01:45.856Z,44.67
2023-06-07T03:04:13.920Z,43.10
2023-06-07T03:06:43.266Z,41.76
2023-06-07T03:09:11.391Z,43.71
2023-06-07T03:11:39.370Z,44.17
2023-06-07T03:14:07.378Z,42.61
2023-06-07T03:16:35.384Z,43.75
2023-06-07T03:19:03.440Z,44.96
2023-06-07T03:21:31.441Z,42.53
2023-06-07T03:24:00.848Z,44.28
2023-06-07T03:26:28.868Z,44.75
2023-06-07T03:28:57.579Z,42.13
2023-06-07T03:31:26.591Z,40.88
2023-06-07T03:33:54.708Z,42.11
2023-06-07T03:36:25.682Z,45.74
2023-06-07T03:38:55.853Z,44.68
2023-06-07T03:41:26.705Z,46.07
2023-06-07T03:43:56.437Z,44.02
2023-06-07T03:46:37.829Z,45.84
2023-06-07T03:49:10.187Z,44.81
2023-06-07T03:51:40.705Z,45.34
2023-06-07T03:54:17.140Z,42.99
2023-06-07T03:56:47.508Z,41.26
2023-06-07T03:59:16.382Z,41.31
2023-06-07T04:01:44.397Z,39.83
2023-06-07T04:04:12.516Z,38.11
2023-06-07T04:06:40.923Z,37.50
2023-06-07T04:09:09.395Z,36.38
2023-06-07T04:11:37.463Z,37.23
2023-06-07T04:14:06.920Z,37.13
2023-06-07T04:16:34.915Z,37.86
2023-06-07T04:19:02.985Z,37.20
2023-06-07T04:21:31.052Z,35.35
2023-06-07T04:23:59.307Z,36.17
2023-06-07T04:26:31.806Z,36.13
2023-06-07T04:28:59.821Z,35.47
2023-06-07T04:31:34.908Z,35.83
2023-06-07T04:34:03.538Z,34.05
2023-06-07T04:36:31.536Z,33.74
2023-06-07T04:38:59.919Z,33.39
2023-06-07T04:41:31.647Z,33.29
2023-06-07T04:44:00.027Z,32.53
2023-06-07T04:46:29.719Z,34.36
2023-06-07T04:48:58.634Z,35.85
2023-06-07T04:51:27.502Z,34.09
2023-06-07T04:53:59.501Z,35.96
2023-06-07T04:56:28.367Z,34.30
2023-06-07T04:58:56.633Z,32.54
2023-06-07T05:01:25.491Z,32.97
2023-06-07T05:04:01.374Z,33.35
2023-06-07T05:06:30.341Z,36.39
2023-06-07T05:08:58.282Z,32.80
2023-06-07T05:11:26.280Z,31.92
2023-06-07T05:13:54.303Z,33.26
2023-06-07T05:16:22.362Z,33.17
2023-06-07T05:18:50.500Z,33.87
2023-06-07T05:21:19.873Z,34.62
2023-06-07T05:23:47.849Z,34.88
2023-06-07T05:26:16.068Z,35.89
2023-06-07T05:28:44.086Z,35.29
2023-06-07T05:31:13.105Z,33.44
2023-06-07T05:33:41.689Z,33.58
2023-06-07T05:36:11.368Z,34.38
2023-06-07T05:38:40.911Z,34.23
2023-06-07T05:41:09.016Z,34.41
2023-06-07T05:43:38.424Z,34.10
2023-06-07T05:46:06.819Z,33.98
2023-06-07T05:48:34.842Z,34.29
2023-06-07T05:51:02.796Z,32.96
2023-06-07T05:53:31.016Z,33.57
2023-06-07T05:56:00.720Z,32.98
2023-06-07T05:58:28.702Z,32.77
2023-06-07T06:00:57.014Z,34.38
2023-06-07T06:03:25.171Z,33.21
2023-06-07T06:05:53.308Z,32.77
2023-06-07T06:08:21.397Z,33.71
2023-06-07T06:10:49.410Z,33.90
2023-06-07T06:13:18.759Z,34.21
2023-06-07T06:15:46.851Z,34.09
2023-06-07T06:18:15.007Z,35.34
2023-06-07T06:20:43.037Z,34.38
2023-06-07T06:23:11.320Z,34.14
2023-06-07T06:25:39.310Z,35.43
2023-06-07T06:28:07.311Z,35.14
2023-06-07T06:30:36.708Z,36.16
2023-06-07T06:33:05.061Z,36.12
2023-06-07T06:35:34.169Z,36.54
2023-06-07T06:38:02.441Z,35.07
2023-06-07T06:40:30.588Z,36.49
2023-06-07T06:43:01.097Z,35.62
2023-06-07T06:45:29.799Z,35.49
2023-06-07T06:48:00.319Z,36.59
2023-06-07T06:50:33.257Z,36.35
2023-06-07T06:53:02.069Z,34.84
2023-06-07T06:55:30.268Z,37.99
2023-06-07T06:57:58.370Z,36.03
2023-06-07T07:00:26.552Z,35.88
2023-06-07T07:02:54.697Z,34.79
2023-06-07T07:05:24.403Z,34.70
2023-06-07T07:07:52.415Z,34.05
2023-06-07T07:10:20.674Z,33.45
2023-06-07T07:12:48.682Z,33.70
2023-06-07T07:15:16.811Z,33.69
2023-06-07T07:17:47.331Z,33.53
2023-06-07T07:20:15.796Z,32.91
2023-06-07T07:22:46.384Z,33.31
2023-06-07T07:25:14.605Z,32.98
2023-06-07T07:27:42.598Z,33.55
2023-06-07T07:30:11.734Z,34.82
2023-06-07T07:32:40.675Z,33.33
2023-06-07T07:35:09.030Z,34.18
2023-06-07T07:37:37.051Z,34.27
2023-06-07T07:40:07.505Z,34.80
2023-06-07T07:42:36.019Z,34.00
2023-06-07T07:45:04.943Z,36.13
2023-06-07T07:47:33.020Z,34.69
2023-06-07T07:50:01.984Z,34.21
2023-06-07T07:52:30.128Z,35.01
2023-06-07T07:54:58.135Z,32.54
2023-06-07T07:57:27.480Z,31.34
2023-06-07T07:59:55.743Z,31.28
2023-06-07T08:02:23.986Z,32.32
2023-06-07T08:04:54.906Z,32.85
2023-06-07T08:07:24.014Z,32.87
2023-06-07T08:09:51.992Z,34.00
2023-06-07T08:12:20.037Z,34.59
2023-06-07T08:14:49.459Z,32.74
2023-06-07T08:17:17.472Z,33.40
2023-06-07T08:19:45.513Z,32.92
2023-06-07T08:22:13.609Z,32.03
2023-06-07T08:24:41.624Z,31.92
2023-06-07T08:27:09.685Z,31.14
2023-06-07T08:29:37.769Z,30.58
2023-06-07T08:32:07.693Z,30.87
2023-06-07T08:34:38.590Z,30.78
2023-06-07T08:37:07.259Z,30.38
2023-06-07T08:39:35.446Z,30.19
2023-06-07T08:42:03.557Z,29.40
2023-06-07T08:44:31.565Z,31.24
2023-06-07T08:46:59.988Z,30.29
2023-06-07T08:49:29.314Z,30.09
2023-06-07T08:52:13.982Z,30.25
2023-06-07T08:54:44.738Z,31.03
2023-06-07T08:57:15.826Z,30.79
2023-06-07T08:59:45.048Z,30.37
2023-06-07T09:02:13.356Z,30.41
2023-06-07T09:04:42.869Z,29.38
2023-06-07T09:07:10.962Z,28.88
2023-06-07T09:09:42.106Z,28.10
2023-06-07T09:12:10.188Z,27.59
2023-06-07T09:14:38.379Z,28.15
2023-06-07T09:17:06.759Z,28.15
2023-06-07T09:19:35.191Z,27.50
2023-06-07T09:22:04.827Z,26.50
2023-06-07T09:24:33.059Z,27.94
2023-06-07T09:27:02.077Z,27.49
2023-06-07T09:29:30.424Z,28.13
2023-06-07T09:32:00.402Z,28.68
2023-06-07T09:34:29.700Z,28.48
2023-06-07T09:36:58.938Z,27.26
2023-06-07T09:39:29.063Z,27.97
2023-06-07T09:41:57.725Z,27.69
2023-06-07T09:44:26.396Z,26.40
2023-06-07T09:46:54.695Z,26.96
2023-06-07T09:49:28.559Z,26.76
2023-06-07T09:51:56.684Z,28.10
2023-06-07T09:54:39.016Z,28.60
2023-06-07T09:57:08.810Z,28.45
2023-06-07T09:59:38.412Z,28.22
2023-06-07T10:02:24.398Z,27.49
2023-06-07T10:04:57.377Z,25.98
2023-06-07T10:07:27.207Z,26.98
2023-06-07T10:09:58.022Z,26.22
2023-06-07T10:12:27.566Z,24.99
2023-06-07T10:14:55.657Z,27.61
2023-06-07T10:17:26.753Z,26.07
2023-06-07T10:19:59.298Z,27.06
2023-06-07T10:22:28.772Z,25.96
2023-06-07T10:25:02.021Z,26.23
2023-06-07T10:27:36.457Z,27.00
2023-06-07T10:30:05.563Z,26.11
2023-06-07T10:32:35.625Z,26.38
2023-06-07T10:35:03.759Z,24.04
2023-06-07T10:37:33.401Z,24.71
2023-06-07T10:40:06.768Z,25.23
2023-06-07T10:42:35.208Z,25.41
2023-06-07T10:45:03.264Z,24.96
2023-06-07T10:47:31.710Z,23.72
2023-06-07T10:49:59.828Z,25.04
2023-06-07T10:52:28.529Z,24.57
2023-06-07T10:54:56.666Z,24.86
2023-06-07T10:57:38.328Z,24.73
2023-06-07T11:00:26.240Z,24.03
2023-06-07T11:03:10.707Z,23.99
2023-06-07T11:05:54.232Z,25.82
2023-06-07T11:08:26.054Z,24.70
2023-06-07T11:10:59.610Z,23.67
2023-06-07T11:13:29.093Z,24.01
2023-06-07T11:16:01.351Z,23.18
2023-06-07T11:18:37.755Z,22.92
2023-06-07T11:21:06.285Z,22.60
2023-06-07T11:23:35.601Z,22.69
2023-06-07T11:26:10.020Z,22.47
2023-06-07T11:28:40.174Z,22.05
2023-06-07T11:31:10.195Z,22.08
2023-06-07T11:33:38.486Z,21.86
2023-06-07T11:36:06.700Z,22.50
2023-06-07T11:38:35.213Z,22.79
2023-06-07T11:41:04.441Z,23.09
2023-06-07T11:43:32.655Z,21.40
2023-06-07T11:46:02.071Z,21.86
2023-06-07T11:48:30.236Z,21.15
2023-06-07T11:50:58.555Z,20.43
2023-06-07T11:53:29.997Z,21.60
2023-06-07T11:55:58.437Z,21.77
2023-06-07T11:58:26.403Z,23.47
2023-06-07T12:00:54.699Z,23.14
2023-06-07T12:03:24.329Z,22.85
2023-06-07T12:05:54.353Z,22.93
2023-06-07T12:08:23.877Z,23.58
2023-06-07T12:10:53.965Z,22.06
2023-06-07T12:13:22.372Z,21.83
2023-06-07T12:15:50.696Z,21.31
2023-06-07T12:18:19.854Z,21.04
2023-06-07T12:20:49.577Z,21.18
2023-06-07T12:23:22.192Z,21.32
2023-06-07T12:25:50.179Z,21.62
2023-06-07T12:28:18.197Z,20.84
2023-06-07T12:30:46.968Z,20.60
2023-06-07T12:33:16.187Z,23.09
2023-06-07T12:35:48.761Z,22.76
2023-06-07T12:38:18.453Z,22.44
2023-06-07T12:40:47.146Z,22.04
2023-06-07T12:43:15.397Z,21.51
2023-06-07T12:45:43.368Z,21.16
2023-06-07T12:48:11.531Z,20.57
2023-06-07T12:50:39.554Z,20.13
2023-06-07T12:53:07.795Z,20.16
2023-06-07T12:55:37.132Z,19.70
2023-06-07T12:58:05.101Z,19.69
2023-06-07T13:00:33.126Z,19.07
2023-06-07T13:03:01.322Z,21.35
2023-06-07T13:05:29.668Z,21.50
2023-06-07T13:07:57.628Z,20.26
2023-06-07T13:10:26.152Z,21.79
2023-06-07T13:12:55.478Z,20.14
2023-06-07T13:15:23.596Z,20.56
2023-06-07T13:17:51.823Z,19.09
2023-06-07T13:20:19.994Z,20.17
2023-06-07T13:22:48.013Z,19.78
2023-06-07T13:25:16.688Z,19.40
2023-06-07T13:27:46.147Z,19.62
2023-06-07T13:30:16.002Z,20.04
2023-06-07T13:32:44.014Z,19.89
2023-06-07T13:35:12.061Z,20.95
2023-06-07T13:37:40.122Z,20.60
2023-06-07T13:40:09.083Z,21.06
2023-06-07T13:42:37.587Z,21.00
2023-06-07T13:45:06.198Z,20.69
2023-06-07T13:47:35.931Z,19.97
2023-06-07T13:50:04.429Z,21.44
2023-06-07T13:52:33.721Z,20.64
2023-06-07T13:55:01.766Z,21.00
2023-06-07T13:57:29.737Z,20.15
2023-06-07T13:59:58.301Z,19.99
2023-06-07T14:02:26.773Z,20.60
2023-06-07T14:04:59.067Z,19.66
2023-06-07T14:07:29.031Z,19.87
2023-06-07T14:09:57.267Z,21.31
2023-06-07T14:12:25.329Z,20.03
2023-06-07T14:14:53.303Z,21.18
2023-06-07T14:17:21.270Z,19.46
2023-06-07T14:19:49.296Z,18.97
2023-06-07T14:22:19.235Z,19.19
2023-06-07T14:24:47.365Z,18.70
2023-06-07T14:27:16.142Z,19.87
2023-06-07T14:29:44.178Z,19.94
2023-06-07T14:32:12.142Z,19.96
2023-06-07T14:34:40.118Z,20.20
2023-06-07T14:37:08.198Z,20.11
2023-06-07T14:39:37.559Z,19.86
2023-06-07T14:42:06.839Z,19.32
2023-06-07T14:44:34.845Z,21.94
2023-06-07T14:47:05.041Z,21.32
2023-06-07T14:49:33.783Z,20.10
2023-06-07T14:52:01.892Z,19.87
2023-06-07T14:54:29.853Z,19.36
2023-06-07T14:56:59.143Z,19.55
2023-06-07T14:59:27.168Z,19.00
2023-06-07T15:01:55.169Z,19.18
2023-06-07T15:04:23.163Z,19.68
2023-06-07T15:06:51.352Z,19.11
2023-06-07T15:09:19.325Z,19.09
2023-06-07T15:11:47.271Z,20.67
2023-06-07T15:14:16.802Z,20.48
2023-06-07T15:16:44.822Z,20.34
2023-06-07T15:19:12.776Z,20.52
2023-06-07T15:21:40.761Z,20.12
2023-06-07T15:24:08.891Z,20.17
2023-06-07T15:26:36.867Z,20.34
2023-06-07T15:29:04.840Z,20.68
2023-06-07T15:31:34.143Z,21.05
2023-06-07T15:34:02.960Z,20.41
2023-06-07T15:36:31.110Z,19.02
2023-06-07T15:38:59.046Z,19.58
2023-06-07T15:41:28.339Z,20.29
2023-06-07T15:43:57.009Z,19.50
2023-06-07T15:46:25.145Z,20.05
2023-06-07T15:48:54.501Z,19.80
2023-06-07T15:51:22.424Z,20.37
2023-06-07T15:53:51.136Z,19.74
2023-06-07T15:56:19.151Z,21.05
2023-06-07T15:58:47.127Z,20.02
2023-06-07T16:01:15.231Z,20.19
2023-06-07T16:03:55.821Z,20.45
2023-06-07T16:06:25.994Z,20.78
2023-06-07T16:08:54.039Z,21.45
2023-06-07T16:11:22.728Z,20.75
2023-06-07T16:13:50.699Z,21.35
2023-06-07T16:16:18.756Z,20.88
2023-06-07T16:18:46.819Z,20.70
2023-06-07T16:21:14.774Z,20.12
2023-06-07T16:23:44.168Z,21.52
2023-06-07T16:26:12.175Z,20.08
2023-06-07T16:28:40.213Z,19.84
2023-06-07T16:31:08.256Z,20.32
2023-06-07T16:33:36.281Z,20.27
2023-06-07T16:36:06.618Z,19.93
2023-06-07T16:38:36.157Z,19.80
2023-06-07T16:41:06.553Z,18.73
2023-06-07T16:43:34.548Z,17.80
2023-06-07T16:46:02.527Z,19.39
2023-06-07T16:48:30.538Z,19.16
2023-06-07T16:50:58.527Z,19.49
2023-06-07T16:53:26.533Z,19.35
2023-06-07T16:55:54.495Z,19.98
2023-06-07T16:58:24.401Z,19.87
2023-06-07T17:00:52.424Z,19.15
2023-06-07T17:03:20.666Z,18.33
2023-06-07T17:05:48.729Z,18.61
2023-06-07T17:08:16.744Z,18.84
2023-06-07T17:10:46.635Z,18.93
2023-06-07T17:13:14.700Z,18.66
2023-06-07T17:15:44.133Z,17.94
2023-06-07T17:18:12.659Z,17.56
2023-06-07T17:20:41.112Z,17.76
2023-06-07T17:23:09.255Z,18.18
2023-06-07T17:25:39.313Z,16.96
2023-06-07T17:28:07.360Z,17.63
2023-06-07T17:30:38.984Z,16.90
2023-06-07T17:33:08.613Z,17.02
2023-06-07T17:35:36.628Z,17.62
2023-06-07T17:38:04.989Z,17.14
2023-06-07T17:40:33.050Z,17.75
2023-06-07T17:43:01.236Z,17.82
2023-06-07T17:45:29.260Z,17.90
2023-06-07T17:47:58.058Z,17.68
2023-06-07T17:50:41.725Z,17.64
2023-06-07T17:53:15.254Z,16.91
2023-06-07T17:55:44.364Z,16.41
2023-06-07T17:58:12.356Z,17.38
2023-06-07T18:00:40.340Z,17.94
2023-06-07T18:03:08.588Z,18.23
2023-06-07T18:05:37.961Z,18.32
2023-06-07T18:08:06.238Z,18.95
2023-06-07T18:10:34.191Z,18.61
2023-06-07T18:13:04.336Z,19.41
2023-06-07T18:15:36.153Z,19.93
2023-06-07T18:18:06.536Z,21.22
2023-06-07T18:20:35.232Z,20.32
2023-06-07T18:23:08.206Z,21.80
2023-06-07T18:25:36.597Z,21.70
2023-06-07T18:28:08.036Z,20.64
2023-06-07T18:30:37.856Z,20.44
2023-06-07T18:33:06.085Z,20.98
2023-06-07T18:35:34.117Z,20.92
2023-06-07T18:38:02.486Z,22.38
2023-06-07T18:40:33.487Z,22.02
2023-06-07T18:43:01.500Z,22.50
2023-06-07T18:45:29.552Z,23.44
2023-06-07T18:47:57.793Z,23.84
2023-06-07T18:50:26.038Z,23.26
2023-06-07T18:52:57.000Z,24.08
2023-06-07T18:55:25.447Z,24.33
2023-06-07T18:57:54.852Z,24.33
2023-06-07T19:00:23.011Z,23.87
2023-06-07T19:02:51.105Z,23.74
2023-06-07T19:05:19.303Z,24.64
2023-06-07T19:07:47.255Z,24.93
2023-06-07T19:10:15.438Z,24.72
2023-06-07T19:12:43.409Z,25.79
2023-06-07T19:15:13.328Z,26.04
2023-06-07T19:17:41.590Z,26.19
2023-06-07T19:20:10.109Z,26.67
2023-06-07T19:22:38.101Z,27.04
2023-06-07T19:25:07.518Z,26.87
2023-06-07T19:27:35.961Z,27.46
2023-06-07T19:30:04.584Z,28.83
2023-06-07T19:32:34.160Z,28.22
2023-06-07T19:35:02.597Z,29.85
2023-06-07T19:37:30.784Z,29.06
2023-06-07T19:39:58.836Z,29.46
2023-06-07T19:42:26.867Z,28.72
2023-06-07T19:44:54.836Z,28.27
2023-06-07T19:47:22.907Z,28.16
2023-06-07T19:49:52.366Z,29.16
2023-06-07T19:52:20.820Z,28.18
2023-06-07T19:54:49.333Z,28.21
2023-06-07T19:57:17.303Z,28.48
2023-06-07T19:59:45.325Z,28.94
2023-06-07T20:02:13.456Z,28.87
2023-06-07T20:04:43.336Z,29.22
2023-06-07T20:07:12.713Z,29.15
2023-06-07T20:09:41.090Z,30.23
2023-06-07T20:12:09.946Z,29.99
2023-06-07T20:14:40.708Z,29.45
2023-06-07T20:17:09.379Z,30.19
2023-06-07T20:19:37.390Z,31.32
2023-06-07T20:22:05.638Z,30.65
2023-06-07T20:24:34.988Z,30.66
2023-06-07T20:27:03.019Z,31.27
2023-06-07T20:29:31.006Z,30.72
2023-06-07T20:31:59.095Z,30.75
2023-06-07T20:34:27.089Z,30.97
2023-06-07T20:36:55.066Z,30.70
2023-06-07T20:39:23.885Z,30.46
2023-06-07T20:41:53.248Z,30.73
2023-06-07T20:44:21.669Z,30.40
2023-06-07T20:46:50.002Z,30.91
2023-06-07T20:49:18.023Z,31.17
2023-06-07T20:51:46.285Z,31.74
2023-06-07T20:54:14.298Z,32.13
2023-06-07T20:56:42.313Z,32.88
2023-06-07T20:59:11.720Z,32.86
2023-06-07T21:01:39.742Z,32.80
2023-06-07T21:04:07.940Z,30.91
2023-06-07T21:06:36.909Z,31.18
2023-06-07T21:09:04.955Z,31.01
2023-06-07T21:11:33.052Z,31.54
2023-06-07T21:14:01.069Z,32.12
2023-06-07T21:16:30.642Z,32.80
2023-06-07T21:18:58.762Z,32.47
2023-06-07T21:21:26.788Z,33.31
2023-06-07T21:23:54.930Z,33.27
2023-06-07T21:26:23.666Z,33.16
2023-06-07T21:28:51.670Z,32.63
2023-06-07T21:31:19.721Z,32.97
2023-06-07T21:34:05.498Z,32.58
2023-06-07T21:36:34.839Z,33.10
2023-06-07T21:39:02.821Z,33.00
2023-06-07T21:41:30.805Z,35.03
2023-06-07T21:43:58.834Z,35.05
2023-06-07T21:46:26.886Z,34.36
2023-06-07T21:48:54.906Z,34.02
2023-06-07T21:51:22.878Z,34.67
2023-06-07T21:53:52.368Z,33.66
2023-06-07T21:56:20.662Z,34.13
2023-06-07T21:58:48.668Z,33.93
2023-06-07T22:01:16.747Z,34.12
2023-06-07T22:03:44.812Z,33.46
2023-06-07T22:06:13.570Z,33.19
2023-06-07T22:08:41.610Z,32.90
2023-06-07T22:11:11.122Z,33.32
2023-06-07T22:13:40.621Z,33.78
2023-06-07T22:16:09.084Z,33.81
2023-06-07T22:18:37.079Z,34.22
2023-06-07T22:21:05.231Z,35.65
2023-06-07T22:23:33.342Z,34.20
2023-06-07T22:26:02.153Z,33.55
2023-06-07T22:28:31.745Z,34.41
2023-06-07T22:30:59.853Z,34.00
2023-06-07T22:33:27.935Z,34.59
2023-06-07T22:35:58.334Z,35.29
2023-06-07T22:38:26.375Z,35.67
2023-06-07T22:40:55.528Z,34.54
2023-06-07T22:43:23.687Z,34.85
2023-06-07T22:45:53.028Z,35.60
2023-06-07T22:48:21.477Z,34.91
2023-06-07T22:50:51.864Z,36.53
2023-06-07T22:53:20.971Z,35.28
2023-06-07T22:55:49.038Z,34.49
2023-06-07T22:58:17.034Z,34.54
2023-06-07T23:00:45.057Z,34.59
2023-06-07T23:03:14.553Z,35.14
2023-06-07T23:05:44.709Z,35.08
2023-06-07T23:08:12.768Z,34.60
2023-06-07T23:10:40.792Z,34.21
2023-06-07T23:13:10.775Z,34.07
2023-06-07T23:15:42.882Z,34.72
2023-06-07T23:18:12.300Z,34.65
2023-06-07T23:20:42.706Z,36.54
2023-06-07T23:23:13.264Z,36.53
2023-06-07T23:25:41.371Z,35.55
2023-06-07T23:28:09.445Z,34.92
2023-06-07T23:30:37.654Z,35.24
2023-06-07T23:33:05.893Z,34.82
2023-06-07T23:35:34.003Z,34.96
2023-06-07T23:38:03.352Z,34.70
2023-06-07T23:40:31.770Z,35.27
2023-06-07T23:43:01.853Z,35.60
2023-06-07T23:45:31.639Z,35.19
2023-06-07T23:47:59.743Z,35.14
2023-06-07T23:50:27.903Z,35.27
2023-06-07T23:52:55.947Z,35.96
2023-06-07T23:55:25.725Z,35.50
2023-06-07T23:57:53.804Z,36.40
